createdAt,value
2019-05-07T00:00:03.382Z,68.42
2019-05-07T00:02:33.123Z,68.42
2019-05-07T00:05:02.755Z,68.43
2019-05-07T00:07:32.140Z,68.67
2019-05-07T00:10:03.382Z,69.28
2019-05-07T00:12:32.443Z,69.29
2019-05-07T00:15:04.441Z,69.36
2019-05-07T00:17:32.872Z,69.67
2019-05-07T00:20:02.339Z,69.66
2019-05-07T00:22:32.681Z,69.70
2019-05-07T00:25:03.125Z,69.76
2019-05-07T00:27:32.436Z,69.95
2019-05-07T00:30:02.864Z,69.70
2019-05-07T00:32:33.738Z,69.90
2019-05-07T00:35:07.264Z,69.67
2019-05-07T00:37:38.071Z,69.90
2019-05-07T00:40:22.526Z,70.20
2019-05-07T00:43:08.466Z,70.22
2019-05-07T00:45:56.995Z,70.92
2019-05-07T00:48:26.530Z,71.35
2019-05-07T00:50:57.343Z,71.28
2019-05-07T00:53:26.522Z,71.69
2019-05-07T00:55:55.721Z,72.02
2019-05-07T00:58:26.836Z,72.73
2019-05-07T01:00:55.849Z,73.14
2019-05-07T01:03:25.016Z,72.68
2019-05-07T01:05:54.212Z,73.44
2019-05-07T01:08:23.395Z,73.56
2019-05-07T01:10:53.070Z,73.27
2019-05-07T01:13:23.363Z,73.06
2019-05-07T01:15:53.359Z,73.05
2019-05-07T01:18:23.450Z,73.04
2019-05-07T01:20:53.461Z,73.30
2019-05-07T01:23:23.186Z,73.48
2019-05-07T01:25:52.820Z,73.59
2019-05-07T01:28:22.474Z,73.94
2019-05-07T01:30:52.796Z,74.25
2019-05-07T01:33:23.962Z,74.33
2019-05-07T01:36:03.537Z,74.48
2019-05-07T01:38:34.710Z,74.83
2019-05-07T01:41:03.900Z,75.42
2019-05-07T01:43:33.092Z,75.66
2019-05-07T01:46:03.169Z,75.55
2019-05-07T01:48:32.532Z,75.42
2019-05-07T01:51:03.439Z,75.37
2019-05-07T01:53:32.814Z,75.36
2019-05-07T01:56:03.223Z,75.17
2019-05-07T01:58:33.306Z,75.23
2019-05-07T02:01:03.014Z,75.74
2019-05-07T02:03:41.920Z,76.10
2019-05-07T02:06:13.200Z,76.18
2019-05-07T02:08:44.334Z,75.87
2019-05-07T02:11:27.107Z,75.37
2019-05-07T02:13:56.373Z,75.11
2019-05-07T02:16:25.547Z,75.35
2019-05-07T02:18:54.732Z,75.20
2019-05-07T02:21:24.911Z,74.99
2019-05-07T02:23:54.091Z,74.67
2019-05-07T02:26:23.254Z,74.78
2019-05-07T02:28:52.427Z,75.04
2019-05-07T02:31:23.317Z,75.13
2019-05-07T02:33:54.200Z,74.47
2019-05-07T02:36:24.605Z,73.58
2019-05-07T02:39:04.045Z,72.85
2019-05-07T02:41:35.014Z,72.06
2019-05-07T02:44:04.494Z,71.84
2019-05-07T02:46:36.454Z,71.90
2019-05-07T02:49:07.506Z,71.65
2019-05-07T02:51:38.347Z,71.13
2019-05-07T02:54:13.356Z,70.62
2019-05-07T02:56:43.348Z,70.17
2019-05-07T02:59:13.663Z,70.09
2019-05-07T03:01:43.530Z,69.58
2019-05-07T03:04:13.052Z,69.70
2019-05-07T03:06:44.358Z,69.78
2019-05-07T03:09:14.390Z,69.72
2019-05-07T03:11:43.996Z,69.47
2019-05-07T03:14:14.174Z,69.34
2019-05-07T03:16:49.209Z,69.21
2019-05-07T03:19:16.481Z,68.90
2019-05-07T03:21:55.516Z,68.74
2019-05-07T03:24:34.115Z,68.59
2019-05-07T03:27:03.221Z,68.06
2019-05-07T03:29:33.520Z,67.82
2019-05-07T03:32:28.743Z,67.90
2019-05-07T03:35:05.983Z,67.59
2019-05-07T03:37:36.177Z,67.34
2019-05-07T03:40:04.247Z,67.35
2019-05-07T03:42:33.935Z,67.45
2019-05-07T03:45:13.667Z,67.33
2019-05-07T03:47:44.078Z,67.17
2019-05-07T03:50:14.698Z,66.92
2019-05-07T03:52:44.221Z,66.96
2019-05-07T03:55:14.716Z,66.91
2019-05-07T03:57:44.305Z,67.12
2019-05-07T04:00:33.284Z,67.12
2019-05-07T04:03:03.646Z,67.78
2019-05-07T04:05:34.210Z,68.33
2019-05-07T04:08:03.837Z,69.31
2019-05-07T04:10:33.797Z,70.04
2019-05-07T04:13:04.487Z,70.37
2019-05-07T04:15:33.884Z,70.51
2019-05-07T04:18:03.822Z,70.79
2019-05-07T04:20:33.587Z,70.98
2019-05-07T04:23:04.303Z,70.90
2019-05-07T04:25:35.329Z,70.91
2019-05-07T04:28:09.268Z,70.77
2019-05-07T04:30:38.834Z,70.74
2019-05-07T04:33:13.053Z,70.86
2019-05-07T04:35:44.082Z,70.98
2019-05-07T04:38:13.899Z,71.12
2019-05-07T04:40:43.723Z,71.22
2019-05-07T04:43:13.726Z,71.12
2019-05-07T04:45:43.510Z,70.91
2019-05-07T04:48:14.228Z,71.21
2019-05-07T04:50:47.670Z,70.90
2019-05-07T04:53:16.293Z,71.36
2019-05-07T04:56:03.590Z,71.58
2019-05-07T04:58:53.130Z,71.81
2019-05-07T05:01:23.652Z,71.85
2019-05-07T05:03:54.087Z,72.44
2019-05-07T05:06:24.182Z,72.36
2019-05-07T05:08:56.294Z,72.61
2019-05-07T05:11:24.475Z,72.78
2019-05-07T05:13:53.654Z,72.96
2019-05-07T05:16:24.085Z,73.14
2019-05-07T05:18:54.596Z,72.53
2019-05-07T05:21:28.203Z,72.76
2019-05-07T05:23:59.022Z,72.84
2019-05-07T05:26:28.218Z,72.58
2019-05-07T05:28:57.414Z,72.94
2019-05-07T05:31:26.690Z,72.89
2019-05-07T05:33:56.904Z,72.34
2019-05-07T05:36:26.104Z,72.03
2019-05-07T05:38:55.308Z,71.95
2019-05-07T05:41:26.154Z,71.86
2019-05-07T05:43:56.974Z,71.41
2019-05-07T05:46:27.800Z,71.05
2019-05-07T05:48:56.996Z,70.94
2019-05-07T05:51:32.217Z,71.06
2019-05-07T05:54:03.427Z,70.66
2019-05-07T05:56:34.234Z,70.37
2019-05-07T05:59:05.068Z,70.69
2019-05-07T06:01:52.405Z,70.44
2019-05-07T06:04:26.048Z,70.03
2019-05-07T06:07:14.764Z,70.36
2019-05-07T06:10:02.505Z,69.92
2019-05-07T06:12:33.280Z,70.22
2019-05-07T06:15:22.220Z,70.00
2019-05-07T06:17:55.603Z,69.59
2019-05-07T06:20:32.310Z,69.10
2019-05-07T06:23:17.872Z,68.71
2019-05-07T06:25:48.155Z,68.32
2019-05-07T06:28:17.343Z,68.42
2019-05-07T06:30:46.545Z,67.91
2019-05-07T06:33:15.737Z,67.86
2019-05-07T06:35:44.932Z,67.54
2019-05-07T06:38:15.040Z,67.71
2019-05-07T06:41:02.726Z,67.68
2019-05-07T06:43:45.363Z,67.73
2019-05-07T06:46:14.558Z,67.65
2019-05-07T06:48:46.218Z,68.14
2019-05-07T06:51:17.261Z,68.40
2019-05-07T06:53:45.616Z,68.48
2019-05-07T06:56:14.811Z,68.48
2019-05-07T07:01:44.181Z,67.92
2019-05-07T07:04:15.093Z,67.71
2019-05-07T07:09:51.838Z,66.83
2019-05-07T07:12:28.138Z,65.09
2019-05-07T07:14:58.185Z,64.54
2019-05-07T07:17:27.786Z,64.18
2019-05-07T07:19:56.986Z,63.54
2019-05-07T07:22:26.263Z,63.35
2019-05-07T07:24:55.473Z,62.89
2019-05-07T07:27:24.766Z,61.38
2019-05-07T07:29:58.055Z,61.38
2019-05-07T07:32:28.888Z,62.05
2019-05-07T07:34:58.140Z,60.39
2019-05-07T07:37:29.013Z,60.39
2019-05-07T07:40:12.866Z,60.37
2019-05-07T07:42:42.706Z,60.13
2019-05-07T07:45:16.148Z,59.05
2019-05-07T07:47:46.797Z,59.67
2019-05-07T07:50:16.757Z,59.67
2019-05-07T07:52:46.127Z,59.49
2019-05-07T07:55:17.364Z,59.90
2019-05-07T07:58:06.431Z,59.07
2019-05-07T08:00:43.178Z,59.07
2019-05-07T08:03:14.218Z,59.38
2019-05-07T08:05:43.407Z,60.29
2019-05-07T08:08:12.937Z,60.12
2019-05-07T08:10:42.644Z,60.41
2019-05-07T08:13:12.262Z,60.14
2019-05-07T08:15:43.025Z,60.19
2019-05-07T08:18:12.402Z,59.78
2019-05-07T08:20:43.051Z,59.94
2019-05-07T08:23:12.339Z,60.01
2019-05-07T08:25:47.657Z,60.54
2019-05-07T08:28:18.714Z,58.52
2019-05-07T08:30:49.655Z,58.56
2019-05-07T08:33:22.416Z,58.81
2019-05-07T08:35:53.009Z,58.73
2019-05-07T08:38:22.203Z,59.16
2019-05-07T08:40:52.130Z,58.46
2019-05-07T08:43:21.928Z,55.81
2019-05-07T08:45:55.326Z,55.81
2019-05-07T08:48:26.149Z,56.91
2019-05-07T08:50:55.333Z,57.42
2019-05-07T08:53:24.533Z,57.15
2019-05-07T08:55:53.766Z,57.03
2019-05-07T08:58:23.189Z,56.47
2019-05-07T09:00:52.469Z,56.04
2019-05-07T09:03:29.058Z,54.75
2019-05-07T09:05:58.231Z,54.75
2019-05-07T09:08:27.471Z,54.75
2019-05-07T09:10:56.925Z,55.40
2019-05-07T09:13:26.142Z,55.08
2019-05-07T09:15:56.264Z,55.09
2019-05-07T09:18:25.528Z,55.21
2019-05-07T09:20:55.743Z,55.92
2019-05-07T09:23:26.985Z,55.26
2019-05-07T09:25:56.178Z,54.61
2019-05-07T09:28:26.085Z,54.02
2019-05-07T09:31:02.638Z,53.23
2019-05-07T09:33:36.227Z,53.22
2019-05-07T09:36:07.121Z,52.68
2019-05-07T09:38:36.329Z,52.64
2019-05-07T09:41:05.548Z,52.44
2019-05-07T09:43:34.755Z,53.75
2019-05-07T09:46:04.018Z,53.31
2019-05-07T09:48:33.846Z,53.77
2019-05-07T09:51:04.248Z,54.42
2019-05-07T09:53:33.481Z,53.89
2019-05-07T09:56:02.684Z,53.74
2019-05-07T09:58:36.734Z,53.55
2019-05-07T10:01:02.857Z,52.12
2019-05-07T10:03:32.529Z,51.76
2019-05-07T10:06:02.373Z,51.65
2019-05-07T10:08:33.046Z,51.84
2019-05-07T10:11:04.169Z,51.68
2019-05-07T10:13:43.572Z,51.30
2019-05-07T10:16:14.467Z,48.38
2019-05-07T10:18:43.669Z,48.79
2019-05-07T10:21:12.846Z,48.81
2019-05-07T10:23:42.027Z,49.89
2019-05-07T10:26:12.202Z,48.36
2019-05-07T10:28:42.477Z,48.79
2019-05-07T10:31:11.748Z,48.25
2019-05-07T10:33:42.202Z,48.25
2019-05-07T10:36:12.503Z,47.97
2019-05-07T10:38:41.831Z,48.63
2019-05-07T10:41:12.135Z,48.63
2019-05-07T10:43:42.868Z,48.36
2019-05-07T10:46:25.025Z,48.30
2019-05-07T10:48:58.561Z,49.19
2019-05-07T10:51:27.733Z,49.21
2019-05-07T10:53:56.946Z,50.02
2019-05-07T10:56:26.129Z,50.91
2019-05-07T10:58:55.349Z,51.63
2019-05-07T11:01:26.209Z,51.74
2019-05-07T11:03:55.707Z,51.60
2019-05-07T11:06:24.887Z,51.17
2019-05-07T11:08:54.118Z,50.78
2019-05-07T11:11:23.331Z,50.88
2019-05-07T11:13:55.890Z,51.28
2019-05-07T11:16:25.090Z,50.52
2019-05-07T11:18:54.351Z,50.96
2019-05-07T11:21:29.726Z,50.87
2019-05-07T11:24:02.871Z,50.81
2019-05-07T11:26:32.841Z,50.88
2019-05-07T11:29:02.560Z,50.31
2019-05-07T11:31:33.064Z,50.64
2019-05-07T11:34:02.926Z,51.11
2019-05-07T11:36:34.493Z,51.33
2019-05-07T11:39:04.277Z,50.98
2019-05-07T11:41:35.129Z,50.36
2019-05-07T11:44:05.992Z,50.53
2019-05-07T11:46:41.593Z,51.15
2019-05-07T11:49:14.824Z,50.07
2019-05-07T11:51:48.273Z,50.68
2019-05-07T11:54:17.447Z,50.07
2019-05-07T11:56:46.630Z,49.55
2019-05-07T11:59:15.825Z,49.60
2019-05-07T12:01:47.772Z,49.40
2019-05-07T12:04:17.362Z,48.91
2019-05-07T12:06:46.562Z,48.98
2019-05-07T12:09:15.740Z,47.92
2019-05-07T12:11:44.917Z,48.95
2019-05-07T12:14:27.349Z,48.95
2019-05-07T12:16:45.030Z,49.92
2019-05-07T12:19:16.583Z,50.51
2019-05-07T12:21:45.096Z,51.22
2019-05-07T12:24:16.357Z,52.80
2019-05-07T12:26:45.533Z,52.33
2019-05-07T12:29:14.765Z,52.33
2019-05-07T12:31:48.545Z,53.30
2019-05-07T12:34:28.620Z,51.77
2019-05-07T12:36:57.821Z,50.34
2019-05-07T12:39:27.075Z,50.68
2019-05-07T12:41:56.268Z,50.54
2019-05-07T12:44:25.463Z,49.26
2019-05-07T12:46:54.710Z,48.46
2019-05-07T12:49:23.865Z,48.75
2019-05-07T12:51:57.239Z,49.27
2019-05-07T12:54:28.072Z,49.35
2019-05-07T12:56:57.247Z,49.65
2019-05-07T12:59:27.677Z,49.31
2019-05-07T13:02:26.727Z,49.48
2019-05-07T13:04:44.643Z,49.90
2019-05-07T13:07:15.453Z,48.96
2019-05-07T13:09:44.646Z,49.09
2019-05-07T13:12:13.819Z,49.32
2019-05-07T13:14:43.012Z,49.43
2019-05-07T13:17:12.232Z,49.43
2019-05-07T13:19:41.998Z,49.10
2019-05-07T13:22:13.067Z,49.27
2019-05-07T13:24:42.746Z,49.63
2019-05-07T13:27:11.951Z,50.17
2019-05-07T13:29:42.461Z,50.50
2019-05-07T13:32:15.031Z,50.83
2019-05-07T13:34:44.991Z,51.06
2019-05-07T13:37:16.098Z,51.11
2019-05-07T13:39:56.372Z,50.77
2019-05-07T13:42:41.942Z,50.46
2019-05-07T13:45:22.452Z,50.46
2019-05-07T13:47:54.237Z,50.51
2019-05-07T13:50:23.599Z,50.26
2019-05-07T13:52:52.951Z,49.57
2019-05-07T13:55:22.100Z,49.57
2019-05-07T13:57:52.410Z,49.35
2019-05-07T14:00:23.378Z,49.57
2019-05-07T14:02:55.056Z,50.08
2019-05-07T14:05:25.043Z,49.96
2019-05-07T14:07:54.349Z,49.40
2019-05-07T14:10:23.618Z,49.51
2019-05-07T14:12:52.907Z,49.28
2019-05-07T14:15:23.137Z,48.38
2019-05-07T14:17:54.946Z,47.87
2019-05-07T14:20:23.716Z,48.00
2019-05-07T14:22:52.926Z,47.58
2019-05-07T14:25:24.052Z,47.96
2019-05-07T14:27:54.004Z,48.23
2019-05-07T14:30:24.546Z,47.65
2019-05-07T14:32:55.434Z,47.47
2019-05-07T14:35:26.354Z,47.47
2019-05-07T14:37:57.234Z,48.60
2019-05-07T14:40:26.476Z,47.68
2019-05-07T14:42:57.306Z,48.00
2019-05-07T14:45:26.509Z,46.99
2019-05-07T14:47:56.040Z,46.92
2019-05-07T14:50:25.239Z,47.23
2019-05-07T14:52:55.230Z,47.13
2019-05-07T14:55:24.812Z,47.20
2019-05-07T14:57:54.079Z,47.52
2019-05-07T15:00:23.393Z,47.66
2019-05-07T15:02:52.648Z,47.78
2019-05-07T15:05:22.388Z,47.41
2019-05-07T15:07:51.822Z,46.75
2019-05-07T15:10:22.196Z,46.91
2019-05-07T15:12:52.206Z,47.71
2019-05-07T15:15:21.959Z,47.74
2019-05-07T15:17:55.868Z,47.41
2019-05-07T15:20:25.171Z,46.46
2019-05-07T15:22:59.003Z,45.30
2019-05-07T15:25:28.254Z,45.53
2019-05-07T15:27:57.512Z,44.27
2019-05-07T15:30:28.442Z,43.97
2019-05-07T15:32:57.627Z,44.67
2019-05-07T15:35:26.870Z,45.10
2019-05-07T15:37:56.340Z,45.31
2019-05-07T15:40:26.016Z,44.03
2019-05-07T15:43:13.063Z,43.98
2019-05-07T15:45:42.205Z,45.01
2019-05-07T15:48:12.713Z,44.41
2019-05-07T15:50:42.917Z,44.84
2019-05-07T15:53:21.838Z,45.17
2019-05-07T15:55:52.337Z,43.98
2019-05-07T15:58:22.731Z,44.36
2019-05-07T16:00:52.000Z,44.33
2019-05-07T16:03:22.811Z,43.79
2019-05-07T16:05:52.975Z,44.33
2019-05-07T16:08:22.968Z,44.77
2019-05-07T16:10:53.152Z,44.95
2019-05-07T16:13:24.091Z,45.16
2019-05-07T16:15:53.280Z,45.49
2019-05-07T16:18:32.805Z,45.03
2019-05-07T16:21:04.765Z,45.84
2019-05-07T16:23:32.942Z,45.07
2019-05-07T16:26:02.397Z,45.11
2019-05-07T16:28:33.010Z,45.98
2019-05-07T16:31:02.614Z,44.37
2019-05-07T16:33:32.028Z,44.13
2019-05-07T16:36:02.688Z,43.82
2019-05-07T16:38:32.748Z,43.61
2019-05-07T16:41:02.072Z,44.51
2019-05-07T16:43:31.264Z,45.26
2019-05-07T16:46:02.309Z,45.69
2019-05-07T16:48:32.711Z,45.55
2019-05-07T16:51:02.437Z,45.97
2019-05-07T16:53:33.112Z,45.65
2019-05-07T16:56:02.998Z,45.54
2019-05-07T16:58:35.066Z,45.67
2019-05-07T17:01:06.248Z,45.99
2019-05-07T17:03:49.232Z,45.64
2019-05-07T17:06:18.416Z,45.25
2019-05-07T17:08:49.237Z,45.36
2019-05-07T17:11:18.466Z,45.70
2019-05-07T17:13:47.743Z,44.77
2019-05-07T17:16:16.950Z,45.12
2019-05-07T17:18:46.162Z,45.34
2019-05-07T17:21:16.808Z,45.25
2019-05-07T17:23:46.012Z,45.24
2019-05-07T17:26:15.530Z,44.79
2019-05-07T17:28:44.714Z,44.49
2019-05-07T17:31:13.941Z,44.21
2019-05-07T17:33:43.116Z,44.74
2019-05-07T17:36:12.396Z,44.33
2019-05-07T17:38:42.861Z,44.48
2019-05-07T17:41:20.004Z,44.25
2019-05-07T17:43:43.063Z,44.35
2019-05-07T17:46:12.356Z,44.59
2019-05-07T17:48:42.788Z,45.17
2019-05-07T17:51:13.980Z,45.42
2019-05-07T17:53:56.566Z,45.40
2019-05-07T17:56:14.093Z,45.13
2019-05-07T17:58:43.367Z,45.11
2019-05-07T18:01:12.555Z,44.25
2019-05-07T18:03:42.896Z,44.59
2019-05-07T18:06:12.605Z,44.66
2019-05-07T18:08:41.844Z,44.16
2019-05-07T18:11:20.136Z,44.07
2019-05-07T18:13:42.624Z,44.09
2019-05-07T18:16:16.158Z,44.25
2019-05-07T18:22:46.903Z,44.54
2019-05-07T18:25:17.078Z,45.10
2019-05-07T18:27:50.050Z,45.17
2019-05-07T18:30:22.189Z,45.16
2019-05-07T18:32:53.410Z,44.86
2019-05-07T18:35:23.166Z,45.05
2019-05-07T18:37:52.789Z,44.84
2019-05-07T18:40:22.697Z,44.97
2019-05-07T18:42:52.542Z,45.22
2019-05-07T18:45:22.027Z,44.65
2019-05-07T18:47:51.700Z,45.20
2019-05-07T18:50:22.547Z,44.78
2019-05-07T18:52:52.448Z,44.55
2019-05-07T18:55:22.619Z,44.56
2019-05-07T18:57:52.116Z,44.65
2019-05-07T19:00:32.167Z,44.61
2019-05-07T19:03:03.479Z,44.66
2019-05-07T19:05:33.241Z,44.66
2019-05-07T19:08:08.139Z,45.56
2019-05-07T19:10:33.519Z,44.84
2019-05-07T19:13:02.815Z,44.25
2019-05-07T19:15:32.841Z,44.43
2019-05-07T19:18:02.771Z,44.80
2019-05-07T19:20:32.748Z,45.18
2019-05-07T19:23:02.780Z,45.73
2019-05-07T19:25:32.733Z,45.68
2019-05-07T19:28:02.204Z,45.96
2019-05-07T19:30:32.724Z,46.57
2019-05-07T19:33:23.576Z,47.08
2019-05-07T19:35:52.826Z,47.49
2019-05-07T19:38:22.293Z,47.71
2019-05-07T19:40:52.829Z,47.85
2019-05-07T19:43:24.348Z,47.79
2019-05-07T19:45:53.495Z,48.39
2019-05-07T19:48:23.224Z,48.01
2019-05-07T19:50:52.827Z,48.33
2019-05-07T19:53:23.633Z,48.55
2019-05-07T19:56:03.347Z,48.87
2019-05-07T19:58:34.470Z,49.11
2019-05-07T20:01:05.282Z,49.11
2019-05-07T20:03:34.645Z,49.35
2019-05-07T20:06:04.044Z,49.43
2019-05-07T20:08:33.362Z,49.84
2019-05-07T20:11:07.252Z,49.84
2019-05-07T20:13:36.971Z,49.49
2019-05-07T20:16:09.020Z,49.38
2019-05-07T20:18:38.329Z,49.57
2019-05-07T20:21:07.608Z,49.64
2019-05-07T20:23:36.846Z,49.91
2019-05-07T20:26:06.085Z,50.08
2019-05-07T20:28:35.338Z,49.95
2019-05-07T20:31:04.510Z,50.27
2019-05-07T20:33:33.718Z,50.61
2019-05-07T20:36:02.988Z,51.00
2019-05-07T20:38:32.202Z,51.36
2019-05-07T20:41:02.130Z,51.65
2019-05-07T20:43:32.763Z,51.60
2019-05-07T20:46:02.709Z,51.77
2019-05-07T20:48:32.642Z,52.21
2019-05-07T20:51:01.970Z,52.25
2019-05-07T20:53:42.311Z,52.49
2019-05-07T20:56:12.246Z,52.41
2019-05-07T20:58:52.906Z,52.59
2019-05-07T21:01:22.197Z,52.48
2019-05-07T21:03:52.902Z,52.22
2019-05-07T21:06:22.503Z,52.44
2019-05-07T21:08:51.856Z,51.98
2019-05-07T21:11:22.732Z,52.03
2019-05-07T21:13:52.485Z,52.43
2019-05-07T21:16:22.166Z,52.07
2019-05-07T21:18:52.871Z,52.44
2019-05-07T21:21:22.111Z,52.13
2019-05-07T21:23:52.723Z,52.14
2019-05-07T21:26:22.627Z,51.92
2019-05-07T21:28:52.838Z,51.90
2019-05-07T21:31:22.879Z,51.57
2019-05-07T21:33:52.506Z,52.17
2019-05-07T21:36:22.803Z,51.56
2019-05-07T21:38:52.270Z,51.97
2019-05-07T21:41:22.665Z,52.16
2019-05-07T21:43:52.864Z,52.16
2019-05-07T21:46:22.467Z,52.06
2019-05-07T21:48:53.630Z,52.21
2019-05-07T21:51:22.986Z,52.21
2019-05-07T21:53:59.374Z,52.05
2019-05-07T21:56:30.204Z,51.59
2019-05-07T21:59:03.991Z,51.30
2019-05-07T22:01:35.200Z,51.49
2019-05-07T22:04:04.475Z,51.78
2019-05-07T22:06:33.651Z,51.47
2019-05-07T22:09:03.308Z,51.52
2019-05-07T22:11:32.500Z,51.53
2019-05-07T22:14:02.199Z,51.98
2019-05-07T22:16:32.848Z,51.70
2019-05-07T22:19:02.788Z,51.41
2019-05-07T22:21:34.160Z,51.85
2019-05-07T22:24:03.027Z,51.33
2019-05-07T22:26:32.433Z,51.26
2019-05-07T22:29:03.059Z,51.26
2019-05-07T22:31:34.082Z,50.88
2019-05-07T22:34:04.910Z,51.06
2019-05-07T22:36:34.126Z,51.28
2019-05-07T22:39:03.693Z,51.25
2019-05-07T22:41:32.877Z,51.11
2019-05-07T22:44:02.607Z,50.54
2019-05-07T22:46:32.688Z,51.04
2019-05-07T22:49:03.143Z,50.92
2019-05-07T22:51:32.551Z,51.07
2019-05-07T22:54:04.096Z,50.96
2019-05-07T22:56:37.554Z,50.91
2019-05-07T22:59:05.336Z,50.83
2019-05-07T23:01:34.537Z,50.94
2019-05-07T23:04:03.766Z,50.59
2019-05-07T23:06:32.953Z,51.07
2019-05-07T23:09:02.172Z,51.31
2019-05-07T23:11:31.372Z,51.52
2019-05-07T23:14:02.531Z,51.77
2019-05-07T23:16:32.470Z,51.95
2019-05-07T23:19:01.777Z,51.97
2019-05-07T23:21:32.003Z,52.16
2019-05-07T23:24:07.074Z,52.14
2019-05-07T23:26:47.299Z,52.61
2019-05-07T23:29:07.156Z,52.27
2019-05-07T23:31:36.426Z,52.31
2019-05-07T23:34:05.614Z,52.69
2019-05-07T23:36:34.854Z,52.94
2019-05-07T23:39:06.042Z,52.47
2019-05-07T23:41:36.864Z,52.99
2019-05-07T23:44:16.460Z,52.96
2019-05-07T23:46:45.660Z,52.65
2019-05-07T23:49:14.862Z,52.64
2019-05-07T23:51:44.053Z,52.58
2019-05-07T23:54:13.225Z,52.66
2019-05-07T23:56:42.936Z,53.35
2019-05-07T23:59:14.761Z,52.65
